createdAt,value
2018-03-04T00:01:19.849Z,75.90
2018-03-04T00:03:48.292Z,76.00
2018-03-04T00:06:16.631Z,76.10
2018-03-04T00:08:45.752Z,75.80
2018-03-04T00:11:14.113Z,75.80
2018-03-04T00:13:42.461Z,76.50
2018-03-04T00:16:10.820Z,75.70
2018-03-04T00:18:39.163Z,76.20
2018-03-04T00:21:07.544Z,76.60
2018-03-04T00:23:35.887Z,77.30
2018-03-04T00:26:05.041Z,76.70
2018-03-04T00:28:33.386Z,76.70
2018-03-04T00:31:01.733Z,76.90
2018-03-04T00:33:30.091Z,77.10
2018-03-04T00:35:58.557Z,77.30
2018-03-04T00:38:26.920Z,77.20
2018-03-04T00:40:55.314Z,77.20
2018-03-04T00:43:23.778Z,77.50
2018-03-04T00:45:52.208Z,77.10
2018-03-04T00:48:20.556Z,77.30
2018-03-04T00:50:48.908Z,77.70
2018-03-04T00:53:17.258Z,77.80
2018-03-04T00:55:45.804Z,77.30
2018-03-04T00:58:14.156Z,77.00
2018-03-04T01:00:42.519Z,77.70
2018-03-04T01:03:10.876Z,78.60
2018-03-04T01:05:40.005Z,78.00
2018-03-04T01:08:08.433Z,78.00
2018-03-04T01:10:36.792Z,77.60
2018-03-04T01:13:05.174Z,77.90
2018-03-04T01:15:33.520Z,78.10
2018-03-04T01:18:02.115Z,78.40
2018-03-04T01:20:30.493Z,78.60
2018-03-04T01:22:58.847Z,78.10
2018-03-04T01:25:27.967Z,78.30
2018-03-04T01:27:56.318Z,78.30
2018-03-04T01:30:25.448Z,78.10
2018-03-04T01:32:53.786Z,78.10
2018-03-04T01:35:22.137Z,78.30
2018-03-04T01:37:50.483Z,79.00
2018-03-04T01:40:18.864Z,79.40
2018-03-04T01:42:47.227Z,79.40
2018-03-04T01:45:15.579Z,79.40
2018-03-04T01:47:44.733Z,80.20
2018-03-04T01:50:13.138Z,80.20
2018-03-04T01:52:41.579Z,79.90
2018-03-04T01:55:09.959Z,80.30
2018-03-04T01:57:38.300Z,80.40
2018-03-04T02:00:07.415Z,81.10
2018-03-04T02:02:35.771Z,81.00
2018-03-04T02:05:04.903Z,81.50
2018-03-04T02:07:33.248Z,81.40
2018-03-04T02:10:02.364Z,82.20
2018-03-04T02:12:31.487Z,82.20
2018-03-04T02:14:59.835Z,82.20
2018-03-04T02:17:28.196Z,82.60
2018-03-04T02:19:56.544Z,82.60
2018-03-04T02:22:24.948Z,82.90
2018-03-04T02:24:53.306Z,83.20
2018-03-04T02:27:21.725Z,83.40
2018-03-04T02:29:50.072Z,83.30
2018-03-04T02:32:18.422Z,82.60
2018-03-04T02:34:46.778Z,84.10
2018-03-04T02:37:15.121Z,84.10
2018-03-04T02:39:43.489Z,83.80
2018-03-04T02:42:11.836Z,84.10
2018-03-04T02:44:40.213Z,84.30
2018-03-04T02:47:08.584Z,84.40
2018-03-04T02:49:37.030Z,84.70
2018-03-04T02:52:06.272Z,85.00
2018-03-04T02:54:34.625Z,85.00
2018-03-04T02:57:03.004Z,85.40
2018-03-04T02:59:31.460Z,85.90
2018-03-04T03:02:00.576Z,85.50
2018-03-04T03:04:29.709Z,86.60
2018-03-04T03:06:58.158Z,86.60
2018-03-04T03:09:27.284Z,87.60
2018-03-04T03:11:55.742Z,87.60
2018-03-04T03:14:24.137Z,88.00
2018-03-04T03:16:52.507Z,88.30
2018-03-04T03:19:20.898Z,88.60
2018-03-04T03:21:49.261Z,88.90
2018-03-04T03:24:17.654Z,89.60
2018-03-04T03:26:46.022Z,89.80
2018-03-04T03:29:15.189Z,90.00
2018-03-04T03:31:44.156Z,90.20
2018-03-04T03:34:12.494Z,90.50
2018-03-04T03:36:40.889Z,90.70
2018-03-04T03:39:09.258Z,91.10
2018-03-04T03:41:37.656Z,91.20
2018-03-04T03:44:06.189Z,91.50
2018-03-04T03:46:34.535Z,91.50
2018-03-04T03:49:02.913Z,91.60
2018-03-04T03:51:31.270Z,91.80
2018-03-04T03:53:59.635Z,92.00
2018-03-04T03:56:27.988Z,92.20
2018-03-04T03:58:57.866Z,92.30
2018-03-04T04:01:26.214Z,92.30
2018-03-04T04:03:54.565Z,92.40
2018-03-04T04:06:23.679Z,92.30
2018-03-04T04:08:52.115Z,92.30
2018-03-04T04:11:20.508Z,92.40
2018-03-04T04:13:49.820Z,92.60
2018-03-04T04:16:18.238Z,92.60
2018-03-04T04:18:46.599Z,92.60
2018-03-04T04:21:14.985Z,92.70
2018-03-04T04:23:43.363Z,92.70
2018-03-04T04:26:11.717Z,92.70
2018-03-04T04:28:40.890Z,93.00
2018-03-04T04:31:09.199Z,93.00
2018-03-04T04:33:37.553Z,93.00
2018-03-04T04:36:06.042Z,93.10
2018-03-04T04:38:34.415Z,93.00
2018-03-04T04:41:02.765Z,93.10
2018-03-04T04:43:31.114Z,93.20
2018-03-04T04:45:59.488Z,93.30
2018-03-04T04:48:27.836Z,93.30
2018-03-04T04:50:56.958Z,93.40
2018-03-04T04:53:25.312Z,93.40
2018-03-04T04:55:54.420Z,93.70
2018-03-04T04:58:22.788Z,93.70
2018-03-04T05:00:51.920Z,94.20
2018-03-04T05:03:20.285Z,93.80
2018-03-04T05:05:48.667Z,93.70
2018-03-04T05:08:17.032Z,94.00
2018-03-04T05:10:46.256Z,94.00
2018-03-04T05:13:14.623Z,94.00
2018-03-04T05:15:43.017Z,94.10
2018-03-04T05:18:11.373Z,94.00
2018-03-04T05:20:40.560Z,93.90
2018-03-04T05:23:09.664Z,94.20
2018-03-04T05:25:38.023Z,93.90
2018-03-04T05:28:06.373Z,93.90
2018-03-04T05:30:34.733Z,93.90
2018-03-04T05:33:03.110Z,93.80
2018-03-04T05:35:31.608Z,93.80
2018-03-04T05:37:59.986Z,93.70
2018-03-04T05:40:28.358Z,93.90
2018-03-04T05:42:56.723Z,93.90
2018-03-04T05:45:25.086Z,94.10
2018-03-04T05:47:53.429Z,94.20
2018-03-04T05:50:21.792Z,94.10
2018-03-04T05:52:50.232Z,94.10
2018-03-04T05:55:18.596Z,94.00
2018-03-04T05:57:47.114Z,94.10
2018-03-04T06:00:15.442Z,94.20
2018-03-04T06:02:43.794Z,94.30
2018-03-04T06:05:12.135Z,94.10
2018-03-04T06:07:40.499Z,94.50
2018-03-04T06:10:08.844Z,94.50
2018-03-04T06:12:37.288Z,94.60
2018-03-04T06:15:05.673Z,94.40
2018-03-04T06:17:34.012Z,94.60
2018-03-04T06:20:03.132Z,94.50
2018-03-04T06:22:31.509Z,94.50
2018-03-04T06:24:59.851Z,94.40
2018-03-04T06:27:28.976Z,94.30
2018-03-04T06:29:57.352Z,94.30
2018-03-04T06:32:25.675Z,94.40
2018-03-04T06:34:54.022Z,94.50
2018-03-04T06:37:22.376Z,94.30
2018-03-04T06:39:50.724Z,94.20
2018-03-04T06:42:19.084Z,94.30
2018-03-04T06:44:47.547Z,94.30
2018-03-04T06:47:15.916Z,94.20
2018-03-04T06:49:44.419Z,94.00
2018-03-04T06:52:12.771Z,94.30
2018-03-04T06:54:41.144Z,94.00
2018-03-04T06:57:10.037Z,93.70
2018-03-04T06:59:38.389Z,93.80
2018-03-04T07:02:07.510Z,94.00
2018-03-04T07:04:35.918Z,93.90
2018-03-04T07:07:04.251Z,93.90
2018-03-04T07:09:32.624Z,93.90
2018-03-04T07:12:01.770Z,93.80
2018-03-04T07:14:30.133Z,93.80
2018-03-04T07:16:58.540Z,93.90
2018-03-04T07:19:26.872Z,93.70
2018-03-04T07:21:56.001Z,93.90
2018-03-04T07:24:24.436Z,93.90
2018-03-04T07:26:52.821Z,94.10
2018-03-04T07:29:21.944Z,94.30
2018-03-04T07:31:51.245Z,94.70
2018-03-04T07:34:19.604Z,94.40
2018-03-04T07:36:47.960Z,94.50
2018-03-04T07:39:16.320Z,94.60
2018-03-04T07:41:44.752Z,94.40
2018-03-04T07:44:14.076Z,94.40
2018-03-04T07:46:42.604Z,94.30
2018-03-04T07:49:10.949Z,94.30
2018-03-04T07:51:39.312Z,94.30
2018-03-04T07:54:07.663Z,94.20
2018-03-04T07:56:36.858Z,94.10
2018-03-04T07:59:05.965Z,94.00
2018-03-04T08:01:34.305Z,94.00
2018-03-04T08:04:02.753Z,94.00
2018-03-04T08:06:31.122Z,93.70
2018-03-04T08:08:59.512Z,93.60
2018-03-04T08:11:28.023Z,93.40
2018-03-04T08:13:56.335Z,93.30
2018-03-04T08:16:24.675Z,93.00
2018-03-04T08:18:53.024Z,92.90
2018-03-04T08:21:21.401Z,92.60
2018-03-04T08:23:49.749Z,92.50
2018-03-04T08:26:30.732Z,91.80
2018-03-04T08:28:59.081Z,91.80
2018-03-04T08:31:27.485Z,91.70
2018-03-04T08:33:56.592Z,91.50
2018-03-04T08:36:25.079Z,91.10
2018-03-04T08:38:53.425Z,90.30
2018-03-04T08:41:22.705Z,89.60
2018-03-04T08:43:51.150Z,88.80
2018-03-04T08:46:19.556Z,88.90
2018-03-04T08:48:47.896Z,88.90
2018-03-04T08:51:16.239Z,88.20
2018-03-04T08:53:45.384Z,86.30
2018-03-04T08:56:13.738Z,86.20
2018-03-04T08:58:42.365Z,85.00
2018-03-04T09:01:11.427Z,84.20
2018-03-04T09:03:39.843Z,84.10
2018-03-04T09:06:08.181Z,84.00
2018-03-04T09:08:36.551Z,84.10
2018-03-04T09:11:04.888Z,83.40
2018-03-04T09:13:33.229Z,82.50
2018-03-04T09:16:01.618Z,81.70
2018-03-04T09:18:29.981Z,81.80
2018-03-04T09:20:58.321Z,80.60
2018-03-04T09:23:26.671Z,80.00
2018-03-04T09:25:55.032Z,80.00
2018-03-04T09:28:23.396Z,78.50
2018-03-04T09:30:51.749Z,77.80
2018-03-04T09:33:20.870Z,77.30
2018-03-04T09:35:49.237Z,77.30
2018-03-04T09:38:18.340Z,77.00
2018-03-04T09:40:46.710Z,77.00
2018-03-04T09:43:15.836Z,74.60
2018-03-04T09:45:44.182Z,74.60
2018-03-04T09:48:13.314Z,76.20
2018-03-04T09:50:41.706Z,75.40
2018-03-04T09:53:10.040Z,77.20
2018-03-04T09:55:38.391Z,77.10
2018-03-04T09:58:06.749Z,76.80
2018-03-04T10:00:35.112Z,75.90
2018-03-04T10:03:03.581Z,75.60
2018-03-04T10:05:31.951Z,77.20
2018-03-04T10:08:00.293Z,76.50
2018-03-04T10:10:28.641Z,77.40
2018-03-04T10:12:57.016Z,76.80
2018-03-04T10:15:25.376Z,76.70
2018-03-04T10:17:53.712Z,75.50
2018-03-04T10:20:22.872Z,76.50
2018-03-04T10:22:51.946Z,75.60
2018-03-04T10:25:20.385Z,76.30
2018-03-04T10:27:48.807Z,77.20
2018-03-04T10:30:17.197Z,77.80
2018-03-04T10:32:45.556Z,77.30
2018-03-04T10:35:13.896Z,77.70
2018-03-04T10:37:42.250Z,77.80
2018-03-04T10:40:10.587Z,78.70
2018-03-04T10:42:39.016Z,78.40
2018-03-04T10:45:07.383Z,79.40
2018-03-04T10:47:35.765Z,78.90
2018-03-04T10:50:04.193Z,77.50
2018-03-04T10:52:33.298Z,77.80
2018-03-04T10:55:02.437Z,76.90
2018-03-04T10:57:30.791Z,76.90
2018-03-04T10:59:59.151Z,76.30
2018-03-04T11:02:33.117Z,74.90
2018-03-04T11:05:01.475Z,74.30
2018-03-04T11:07:29.826Z,73.10
2018-03-04T11:09:58.173Z,73.30
2018-03-04T11:12:26.612Z,73.90
2018-03-04T11:14:54.941Z,73.90
2018-03-04T11:17:24.172Z,73.80
2018-03-04T11:19:52.532Z,73.70
2018-03-04T11:22:20.942Z,74.10
2018-03-04T11:24:49.301Z,73.90
2018-03-04T11:27:17.728Z,73.80
2018-03-04T11:29:46.081Z,73.40
2018-03-04T11:32:14.422Z,73.10
2018-03-04T11:34:43.565Z,70.60
2018-03-04T11:37:11.916Z,70.70
2018-03-04T11:39:40.358Z,70.80
2018-03-04T11:42:08.797Z,67.60
2018-03-04T11:44:37.278Z,67.80
2018-03-04T11:47:05.723Z,65.90
2018-03-04T11:49:34.832Z,64.60
2018-03-04T11:52:03.965Z,65.70
2018-03-04T11:54:32.310Z,65.60
2018-03-04T11:57:00.644Z,65.30
2018-03-04T11:59:28.995Z,67.10
2018-03-04T12:01:57.332Z,67.20
2018-03-04T12:04:26.469Z,66.50
2018-03-04T12:06:54.928Z,66.60
2018-03-04T12:09:23.310Z,68.20
2018-03-04T12:11:52.426Z,68.40
2018-03-04T12:14:20.766Z,68.20
2018-03-04T12:16:49.893Z,69.40
2018-03-04T12:19:18.288Z,69.30
2018-03-04T12:21:46.656Z,70.10
2018-03-04T12:24:14.997Z,70.60
2018-03-04T12:26:43.450Z,68.30
2018-03-04T12:29:11.893Z,69.40
2018-03-04T12:31:40.271Z,68.40
2018-03-04T12:34:08.608Z,68.00
2018-03-04T12:36:36.963Z,68.20
2018-03-04T12:39:05.315Z,67.50
2018-03-04T12:41:33.677Z,66.60
2018-03-04T12:44:02.053Z,66.90
2018-03-04T12:46:30.399Z,66.30
2018-03-04T12:48:59.520Z,65.40
2018-03-04T12:51:28.697Z,66.10
2018-03-04T12:53:57.036Z,66.00
2018-03-04T12:56:25.520Z,67.20
2018-03-04T12:58:53.866Z,65.70
2018-03-04T13:01:22.214Z,66.00
2018-03-04T13:03:50.579Z,65.60
2018-03-04T13:06:19.111Z,65.80
2018-03-04T13:08:47.490Z,65.10
2018-03-04T13:11:15.840Z,64.80
2018-03-04T13:13:44.214Z,64.70
2018-03-04T13:16:12.563Z,63.20
2018-03-04T13:18:40.898Z,61.00
2018-03-04T13:21:09.246Z,59.60
2018-03-04T13:23:38.447Z,56.70
2018-03-04T13:26:06.863Z,56.10
2018-03-04T13:28:35.224Z,57.20
2018-03-04T13:31:03.614Z,55.40
2018-03-04T13:33:31.953Z,53.50
2018-03-04T13:36:00.321Z,50.20
2018-03-04T13:38:28.672Z,50.70
2018-03-04T13:40:57.041Z,47.50
2018-03-04T13:43:25.393Z,48.50
2018-03-04T13:45:53.771Z,47.40
2018-03-04T13:48:23.014Z,45.40
2018-03-04T13:50:51.377Z,45.50
2018-03-04T13:53:19.756Z,44.10
2018-03-04T13:55:48.159Z,43.00
2018-03-04T13:58:16.515Z,43.30
2018-03-04T14:00:44.889Z,43.80
2018-03-04T14:03:13.236Z,43.00
2018-03-04T14:05:42.482Z,43.60
2018-03-04T14:08:10.832Z,43.60
2018-03-04T14:10:39.240Z,43.40
2018-03-04T14:13:07.697Z,43.90
2018-03-04T14:15:36.029Z,43.70
2018-03-04T14:18:04.407Z,44.70
2018-03-04T14:20:32.758Z,44.90
2018-03-04T14:23:01.113Z,44.00
2018-03-04T14:25:29.485Z,44.50
2018-03-04T14:27:58.047Z,45.00
2018-03-04T14:30:26.393Z,46.30
2018-03-04T14:32:54.757Z,46.90
2018-03-04T14:35:23.120Z,46.60
2018-03-04T14:37:51.468Z,47.00
2018-03-04T14:40:20.585Z,47.30
2018-03-04T14:42:48.972Z,47.30
2018-03-04T14:45:17.330Z,46.70
2018-03-04T14:47:46.457Z,48.20
2018-03-04T14:50:14.805Z,48.30
2018-03-04T14:52:46.889Z,47.60
2018-03-04T14:55:15.269Z,47.60
2018-03-04T14:57:43.657Z,50.40
2018-03-04T15:00:12.146Z,50.90
2018-03-04T15:02:40.511Z,52.20
2018-03-04T15:05:08.896Z,53.60
2018-03-04T15:07:37.272Z,54.40
2018-03-04T15:10:05.630Z,54.80
2018-03-04T15:12:34.049Z,56.00
2018-03-04T15:15:02.520Z,55.10
2018-03-04T15:17:30.880Z,54.70
2018-03-04T15:19:59.297Z,54.30
2018-03-04T15:22:27.767Z,56.10
2018-03-04T15:24:56.100Z,57.00
2018-03-04T15:27:25.206Z,60.50
2018-03-04T15:29:54.449Z,62.90
2018-03-04T15:32:22.787Z,62.70
2018-03-04T15:34:51.158Z,65.70
2018-03-04T15:37:20.272Z,68.70
2018-03-04T15:39:48.709Z,68.60
2018-03-04T15:42:17.083Z,72.10
2018-03-04T15:44:45.441Z,74.80
2018-03-04T15:47:13.809Z,75.50
2018-03-04T15:49:42.165Z,76.70
2018-03-04T15:52:10.511Z,77.70
2018-03-04T15:54:38.880Z,78.50
2018-03-04T15:57:07.277Z,81.60
2018-03-04T15:59:35.636Z,82.20
2018-03-04T16:02:03.972Z,83.20
2018-03-04T16:04:32.437Z,83.90
2018-03-04T16:07:00.785Z,83.90
2018-03-04T16:09:29.229Z,84.30
2018-03-04T16:11:57.571Z,84.50
2018-03-04T16:14:26.696Z,85.10
2018-03-04T16:16:55.070Z,85.10
2018-03-04T16:19:23.529Z,85.40
2018-03-04T16:21:51.915Z,86.00
2018-03-04T16:24:20.382Z,86.70
2018-03-04T16:26:48.748Z,87.50
2018-03-04T16:29:17.873Z,90.00
2018-03-04T16:31:46.225Z,90.20
2018-03-04T16:34:14.597Z,90.90
2018-03-04T16:36:42.942Z,91.60
2018-03-04T16:39:11.340Z,92.30
2018-03-04T16:41:39.636Z,92.90
2018-03-04T16:44:08.005Z,93.50
2018-03-04T16:46:36.355Z,94.00
2018-03-04T16:49:04.794Z,94.60
2018-03-04T16:51:34.110Z,95.50
2018-03-04T16:54:03.431Z,95.40
2018-03-04T16:56:31.938Z,95.70
2018-03-04T16:59:01.175Z,96.00
2018-03-04T17:01:29.573Z,96.40
2018-03-04T17:03:57.992Z,96.60
2018-03-04T17:06:26.348Z,96.90
2018-03-04T17:08:54.707Z,97.20
2018-03-04T17:11:23.073Z,97.40
2018-03-04T17:13:51.422Z,97.70
2018-03-04T17:16:19.793Z,97.80
2018-03-04T17:18:48.156Z,98.10
2018-03-04T17:21:16.515Z,98.20
2018-03-04T17:23:44.937Z,98.20
2018-03-04T17:26:14.364Z,98.10
2018-03-04T17:28:43.524Z,98.00
2018-03-04T17:31:12.370Z,98.00
2018-03-04T17:33:41.548Z,98.00
2018-03-04T17:36:09.917Z,98.00
2018-03-04T17:38:38.264Z,97.90
2018-03-04T17:41:06.642Z,97.90
2018-03-04T17:43:35.218Z,97.90
2018-03-04T17:46:03.548Z,98.00
2018-03-04T17:48:32.680Z,98.00
2018-03-04T17:51:01.034Z,98.00
2018-03-04T17:53:30.178Z,98.20
2018-03-04T17:55:58.526Z,98.20
2018-03-04T17:58:26.876Z,98.20
2018-03-04T18:00:55.233Z,98.20
2018-03-04T18:03:23.690Z,98.40
2018-03-04T18:05:53.334Z,98.60
2018-03-04T18:08:21.675Z,98.60
2018-03-04T18:10:50.030Z,98.60
2018-03-04T18:13:18.435Z,98.90
2018-03-04T18:15:46.796Z,98.90
2018-03-04T18:18:15.159Z,99.20
2018-03-04T18:20:43.903Z,99.60
2018-03-04T18:23:12.391Z,99.90
2018-03-04T18:25:40.846Z,99.90
2018-03-04T18:28:09.212Z,99.90
2018-03-04T18:30:37.564Z,99.90
2018-03-04T18:33:06.719Z,99.90
2018-03-04T18:35:35.167Z,99.90
2018-03-04T18:38:03.512Z,99.90
2018-03-04T18:40:31.921Z,99.90
2018-03-04T18:43:00.402Z,99.90
2018-03-04T18:45:28.781Z,99.90
2018-03-04T18:47:57.154Z,99.90
2018-03-04T18:50:25.551Z,99.90
2018-03-04T18:52:53.894Z,99.90
2018-03-04T18:55:23.035Z,99.90
2018-03-04T18:57:51.413Z,99.90
2018-03-04T19:00:19.853Z,99.90
2018-03-04T19:02:48.198Z,99.90
2018-03-04T19:05:16.586Z,99.90
2018-03-04T19:07:44.976Z,99.90
2018-03-04T19:10:14.120Z,99.90
2018-03-04T19:12:42.506Z,99.90
2018-03-04T19:15:10.870Z,99.90
2018-03-04T19:17:39.309Z,99.90
2018-03-04T19:20:07.689Z,99.90
2018-03-04T19:22:36.152Z,99.90
2018-03-04T19:25:04.527Z,99.90
2018-03-04T19:27:32.885Z,99.90
2018-03-04T19:30:01.254Z,99.90
2018-03-04T19:32:29.604Z,99.90
2018-03-04T19:34:58.430Z,99.90
2018-03-04T19:37:26.915Z,99.90
2018-03-04T19:39:55.266Z,99.90
2018-03-04T19:42:23.652Z,99.90
2018-03-04T19:44:52.005Z,99.90
2018-03-04T19:47:21.208Z,99.90
2018-03-04T19:49:50.314Z,99.90
2018-03-04T19:52:19.484Z,99.90
2018-03-04T19:54:48.654Z,99.90
2018-03-04T19:57:16.996Z,99.90
2018-03-04T19:59:45.350Z,99.90
2018-03-04T20:02:13.803Z,99.90
2018-03-04T20:04:42.111Z,99.90
2018-03-04T20:07:11.240Z,99.90
2018-03-04T20:09:40.385Z,99.90
2018-03-04T20:12:08.915Z,99.90
2018-03-04T20:14:37.324Z,99.90
2018-03-04T20:17:05.660Z,99.90
2018-03-04T20:19:34.926Z,99.90
2018-03-04T20:22:03.252Z,99.90
2018-03-04T20:24:31.597Z,99.90
2018-03-04T20:26:59.964Z,99.90
2018-03-04T20:29:28.402Z,99.90
2018-03-04T20:31:57.111Z,99.90
2018-03-04T20:34:25.452Z,99.90
2018-03-04T20:36:53.852Z,99.90
2018-03-04T20:39:22.253Z,99.90
2018-03-04T20:41:50.609Z,99.90
2018-03-04T20:44:18.956Z,99.90
2018-03-04T20:46:48.241Z,99.90
2018-03-04T20:49:17.380Z,99.90
2018-03-04T20:51:45.730Z,99.90
2018-03-04T20:54:14.851Z,99.90
2018-03-04T20:56:43.195Z,99.90
2018-03-04T20:59:12.314Z,99.90
2018-03-04T21:01:45.847Z,99.90
2018-03-04T21:04:14.177Z,99.90
2018-03-04T21:06:42.548Z,99.90
2018-03-04T21:09:10.889Z,99.90
2018-03-04T21:11:41.036Z,99.90
2018-03-04T21:14:09.629Z,99.90
2018-03-04T21:16:41.503Z,99.90
2018-03-04T21:19:10.619Z,99.90
2018-03-04T21:21:39.022Z,99.90
2018-03-04T21:24:07.400Z,99.90
2018-03-04T21:26:35.765Z,99.90
2018-03-04T21:29:04.155Z,99.90
2018-03-04T21:31:32.509Z,99.90
2018-03-04T21:34:00.860Z,99.90
2018-03-04T21:36:30.014Z,99.50
2018-03-04T21:38:58.359Z,99.70
2018-03-04T21:41:26.716Z,99.50
2018-03-04T21:43:55.082Z,99.10
2018-03-04T21:46:24.348Z,98.90
2018-03-04T21:48:52.694Z,98.70
2018-03-04T21:51:21.837Z,98.40
2018-03-04T21:53:50.202Z,98.30
2018-03-04T21:56:18.742Z,98.40
2018-03-04T21:58:47.068Z,98.20
2018-03-04T22:01:15.537Z,98.20
2018-03-04T22:03:43.900Z,98.10
2018-03-04T22:06:13.024Z,97.80
2018-03-04T22:08:41.397Z,97.80
2018-03-04T22:11:09.769Z,97.60
2018-03-04T22:13:38.115Z,97.50
2018-03-04T22:16:07.208Z,97.50
2018-03-04T22:18:37.633Z,97.30
2018-03-04T22:21:05.947Z,97.30
2018-03-04T22:23:34.442Z,97.20
2018-03-04T22:26:02.763Z,97.00
2018-03-04T22:28:31.961Z,97.00
2018-03-04T22:31:00.312Z,97.00
2018-03-04T22:33:28.663Z,96.90
2018-03-04T22:35:57.014Z,96.80
2018-03-04T22:38:26.169Z,96.80
2018-03-04T22:40:54.517Z,96.80
2018-03-04T22:43:22.975Z,96.90
2018-03-04T22:45:51.376Z,96.90
2018-03-04T22:48:19.977Z,97.00
2018-03-04T22:50:48.300Z,97.20
2018-03-04T22:53:17.424Z,97.30
2018-03-04T22:55:45.792Z,97.30
2018-03-04T22:58:14.921Z,97.70
2018-03-04T23:00:43.267Z,97.60
2018-03-04T23:03:11.625Z,97.90
2018-03-04T23:05:39.954Z,98.20
2018-03-04T23:08:08.296Z,98.60
2018-03-04T23:10:36.639Z,98.80
2018-03-04T23:13:05.017Z,99.10
2018-03-04T23:15:33.437Z,99.40
2018-03-04T23:18:01.752Z,99.70
2018-03-04T23:20:30.104Z,99.70
2018-03-04T23:22:58.500Z,99.90
2018-03-04T23:25:26.847Z,99.90
2018-03-04T23:27:55.955Z,99.90
2018-03-04T23:30:25.082Z,99.90
2018-03-04T23:32:53.435Z,99.90
2018-03-04T23:35:22.615Z,99.90
2018-03-04T23:37:50.919Z,99.90
2018-03-04T23:40:19.308Z,99.90
2018-03-04T23:42:47.657Z,99.90
2018-03-04T23:45:16.797Z,99.90
2018-03-04T23:47:45.144Z,99.90
2018-03-04T23:50:13.486Z,99.90
2018-03-04T23:52:41.857Z,99.90
2018-03-04T23:55:10.416Z,99.90
2018-03-04T23:57:38.750Z,99.90
